Time,TemperatureF,DewpointF,PressureIn,WindDirection,WindDirectionDegrees,WindSpeedMPH,WindSpeedGustMPH,Humidity,HourlyPrecipIn,Conditions,Clouds,dailyrainin,SoftwareType,DateUTC
2013-01-21 00:04:00,50.7,44.4,30.05,South,187,0.0,0.0,79,0.00,,CLR,0.00,VWS V14.01,2013-01-21 06:04:00,
2013-01-21 00:09:00,50.7,44.4,30.05,South,187,0.0,0.0,79,0.00,,CLR,0.00,VWS V14.01,2013-01-21 06:09:00,
2013-01-21 00:14:00,50.5,44.2,30.04,South,187,0.0,0.0,79,0.00,,CLR,0.00,VWS V14.01,2013-01-21 06:14:00,
2013-01-21 00:19:00,50.5,44.2,30.04,South,187,0.0,0.0,79,0.00,,CLR,0.00,VWS V14.01,2013-01-21 06:19:00,
2013-01-21 00:24:00,50.4,44.5,30.04,South,187,0.0,0.0,80,0.00,,CLR,0.00,VWS V14.01,2013-01-21 06:24:00,
2013-01-21 00:30:00,50.4,44.5,30.04,South,187,0.0,0.0,80,0.00,,CLR,0.00,VWS V14.01,2013-01-21 06:30:00,
2013-01-21 00:35:00,50.4,44.5,30.04,South,187,0.0,0.0,80,0.00,,CLR,0.00,VWS V14.01,2013-01-21 06:35:00,
2013-01-21 00:40:00,50.4,44.5,30.04,South,187,0.0,0.0,80,0.00,,CLR,0.00,VWS V14.01,2013-01-21 06:40:00,
2013-01-21 00:45:00,50.4,44.5,30.04,South,187,0.0,0.0,80,0.00,,CLR,0.00,VWS V14.01,2013-01-21 06:45:00,
2013-01-21 00:50:00,50.4,44.5,30.04,South,187,0.0,0.0,80,0.00,,CLR,0.00,VWS V14.01,2013-01-21 06:50:00,
2013-01-21 00:55:00,50.4,44.5,30.04,South,187,0.0,0.0,80,0.00,,CLR,0.00,VWS V14.01,2013-01-21 06:55:00,
2013-01-21 01:00:00,50.4,44.5,30.04,South,187,0.0,0.0,80,0.00,,CLR,0.00,VWS V14.01,2013-01-21 07:00:00,
2013-01-21 01:05:00,50.4,44.5,30.04,South,187,0.0,0.0,80,0.00,,CLR,0.00,VWS V14.01,2013-01-21 07:05:00,
2013-01-21 01:10:00,50.4,44.5,30.04,South,187,0.0,0.0,80,0.00,,CLR,0.00,VWS V14.01,2013-01-21 07:10:00,
2013-01-21 01:15:00,50.4,44.5,30.05,South,187,0.0,0.0,80,0.00,,CLR,0.00,VWS V14.01,2013-01-21 07:15:00,
2013-01-21 01:21:00,50.4,44.5,30.05,South,187,0.0,0.0,80,0.00,,CLR,0.00,VWS V14.01,2013-01-21 07:21:00,
2013-01-21 01:26:00,50.4,44.5,30.05,South,187,0.0,0.0,80,0.00,,CLR,0.00,VWS V14.01,2013-01-21 07:26:00,
2013-01-21 01:31:00,50.2,44.3,30.05,South,187,0.0,0.0,80,0.00,,CLR,0.00,VWS V14.01,2013-01-21 07:31:00,
2013-01-21 01:36:00,50.2,44.3,30.05,South,187,0.0,0.0,80,0.00,,CLR,0.00,VWS V14.01,2013-01-21 07:36:00,
2013-01-21 01:41:00,50.2,44.3,30.05,South,187,0.0,0.0,80,0.00,,CLR,0.00,VWS V14.01,2013-01-21 07:41:00,
2013-01-21 01:46:00,50.2,44.3,30.06,South,187,0.0,0.0,80,0.00,,CLR,0.00,VWS V14.01,2013-01-21 07:46:00,
2013-01-21 01:51:00,50.1,44.2,30.06,South,187,0.0,0.0,80,0.00,,CLR,0.00,VWS V14.01,2013-01-21 07:51:00,
2013-01-21 01:56:00,50.1,44.5,30.06,South,187,0.0,0.0,81,0.00,,CLR,0.00,VWS V14.01,2013-01-21 07:56:00,
2013-01-21 02:01:00,50.1,44.5,30.06,South,187,0.0,0.0,81,0.00,,CLR,0.00,VWS V14.01,2013-01-21 08:01:00,
2013-01-21 02:06:00,50.1,44.5,30.06,South,187,0.0,0.0,81,0.00,,CLR,0.00,VWS V14.01,2013-01-21 08:06:00,
2013-01-21 02:11:00,50.1,44.5,30.06,South,187,0.0,0.0,81,0.00,,CLR,0.00,VWS V14.01,2013-01-21 08:11:00,
2013-01-21 02:16:00,49.9,44.3,30.06,South,187,0.0,0.0,81,0.00,,CLR,0.00,VWS V14.01,2013-01-21 08:16:00,
2013-01-21 02:21:00,49.9,44.3,30.06,South,187,0.0,0.0,81,0.00,,CLR,0.00,VWS V14.01,2013-01-21 08:21:00,
2013-01-21 02:26:00,49.8,44.2,30.06,South,187,0.0,0.0,81,0.00,,CLR,0.00,VWS V14.01,2013-01-21 08:26:00,
2013-01-21 02:32:00,49.8,44.2,30.06,South,187,0.0,0.0,81,0.00,,CLR,0.00,VWS V14.01,2013-01-21 08:32:00,
2013-01-21 02:37:00,49.6,44.0,30.06,South,187,0.0,0.0,81,0.00,,CLR,0.00,VWS V14.01,2013-01-21 08:37:00,
2013-01-21 02:42:00,49.5,43.9,30.06,South,187,0.0,0.0,81,0.00,,CLR,0.00,VWS V14.01,2013-01-21 08:42:00,
2013-01-21 02:47:00,49.4,43.5,30.06,South,187,0.0,0.0,80,0.00,,CLR,0.00,VWS V14.01,2013-01-21 08:47:00,
2013-01-21 02:52:00,49.1,43.2,30.06,South,187,0.0,0.0,80,0.00,,CLR,0.00,VWS V14.01,2013-01-21 08:52:00,
2013-01-21 02:57:00,48.9,43.0,30.06,South,187,0.0,0.0,80,0.00,,CLR,0.00,VWS V14.01,2013-01-21 08:57:00,
2013-01-21 03:02:00,48.6,42.7,30.06,South,187,0.0,0.0,80,0.00,,CLR,0.00,VWS V14.01,2013-01-21 09:02:00,
2013-01-21 03:07:00,48.5,43.0,30.06,South,187,0.0,0.0,81,0.00,,CLR,0.00,VWS V14.01,2013-01-21 09:07:00,
2013-01-21 03:13:00,48.5,43.0,30.06,South,187,0.0,0.0,81,0.00,,CLR,0.00,VWS V14.01,2013-01-21 09:13:00,
2013-01-21 03:18:00,48.5,43.0,30.06,South,187,0.0,0.0,81,0.00,,CLR,0.00,VWS V14.01,2013-01-21 09:18:00,
2013-01-21 03:23:00,48.5,43.3,30.06,South,187,0.0,0.0,82,0.00,,CLR,0.00,VWS V14.01,2013-01-21 09:23:00,
2013-01-21 03:28:00,48.5,43.3,30.06,South,187,0.0,0.0,82,0.00,,CLR,0.00,VWS V14.01,2013-01-21 09:28:00,
2013-01-21 03:33:00,48.5,43.3,30.06,South,187,0.0,0.0,82,0.00,,CLR,0.00,VWS V14.01,2013-01-21 09:33:00,
2013-01-21 03:38:00,48.5,43.6,30.06,South,187,0.0,0.0,83,0.00,,CLR,0.00,VWS V14.01,2013-01-21 09:38:00,
2013-01-21 03:43:00,48.5,43.6,30.06,South,187,0.0,0.0,83,0.00,,CLR,0.00,VWS V14.01,2013-01-21 09:43:00,
2013-01-21 03:48:00,48.5,43.6,30.06,South,187,0.0,0.0,83,0.00,,CLR,0.00,VWS V14.01,2013-01-21 09:48:00,
2013-01-21 03:53:00,48.3,43.4,30.06,South,187,0.0,1.0,83,0.00,,CLR,0.00,VWS V14.01,2013-01-21 09:53:00,
2013-01-21 03:58:00,48.3,43.4,30.06,South,187,0.0,1.0,83,0.00,,CLR,0.00,VWS V14.01,2013-01-21 09:58:00,
2013-01-21 04:03:00,48.5,43.6,30.06,South,187,0.0,0.0,83,0.00,,CLR,0.00,VWS V14.01,2013-01-21 10:03:00,
2013-01-21 04:08:00,48.5,43.9,30.06,South,187,0.0,0.0,84,0.00,,CLR,0.00,VWS V14.01,2013-01-21 10:08:00,
2013-01-21 04:13:00,48.5,43.9,30.06,South,187,0.0,0.0,84,0.00,,CLR,0.00,VWS V14.01,2013-01-21 10:13:00,
2013-01-21 04:18:00,48.5,43.9,30.06,South,187,0.0,0.0,84,0.00,,CLR,0.00,VWS V14.01,2013-01-21 10:18:00,
2013-01-21 04:23:00,48.5,43.9,30.06,South,187,0.0,0.0,84,0.00,,CLR,0.00,VWS V14.01,2013-01-21 10:23:00,
2013-01-21 04:28:00,48.3,43.7,30.06,South,187,0.0,0.0,84,0.00,,CLR,0.00,VWS V14.01,2013-01-21 10:28:00,
2013-01-21 04:34:00,48.2,43.6,30.06,South,187,0.0,0.0,84,0.00,,CLR,0.00,VWS V14.01,2013-01-21 10:34:00,
2013-01-21 04:39:00,48.0,43.4,30.06,South,187,0.0,0.0,84,0.00,,CLR,0.00,VWS V14.01,2013-01-21 10:39:00,
2013-01-21 04:44:00,47.6,43.0,30.06,South,187,0.0,0.0,84,0.00,,CLR,0.00,VWS V14.01,2013-01-21 10:44:00,
2013-01-21 04:49:00,47.1,42.5,30.06,South,187,0.0,0.0,84,0.00,,CLR,0.00,VWS V14.01,2013-01-21 10:49:00,
2013-01-21 04:54:00,46.8,42.2,30.06,South,187,0.0,0.0,84,0.00,,CLR,0.00,VWS V14.01,2013-01-21 10:54:00,
2013-01-21 04:59:00,46.5,42.2,30.06,South,187,0.0,0.0,85,0.00,,CLR,0.00,VWS V14.01,2013-01-21 10:59:00,
2013-01-21 05:04:00,46.4,42.1,30.06,South,187,0.0,0.0,85,0.00,,CLR,0.00,VWS V14.01,2013-01-21 11:04:00,
2013-01-21 05:09:00,46.4,42.1,30.06,South,187,0.0,0.0,85,0.00,,CLR,0.00,VWS V14.01,2013-01-21 11:09:00,
2013-01-21 05:14:00,46.2,42.0,30.06,South,187,0.0,0.0,85,0.00,,CLR,0.00,VWS V14.01,2013-01-21 11:14:00,
2013-01-21 05:19:00,46.1,41.8,30.06,South,187,0.0,0.0,85,0.00,,CLR,0.00,VWS V14.01,2013-01-21 11:19:00,
2013-01-21 05:24:00,46.0,42.0,30.06,South,187,0.0,0.0,86,0.00,,CLR,0.00,VWS V14.01,2013-01-21 11:24:00,
2013-01-21 05:30:00,45.8,41.9,30.06,South,187,0.0,0.0,86,0.00,,CLR,0.00,VWS V14.01,2013-01-21 11:30:00,
2013-01-21 05:35:00,45.7,41.8,30.06,South,187,0.0,0.0,86,0.00,,CLR,0.00,VWS V14.01,2013-01-21 11:35:00,
2013-01-21 05:40:00,45.4,41.5,30.06,South,187,0.0,0.0,86,0.00,,CLR,0.00,VWS V14.01,2013-01-21 11:40:00,
2013-01-21 05:45:00,45.1,41.2,30.07,South,187,0.0,0.0,86,0.00,,CLR,0.00,VWS V14.01,2013-01-21 11:45:00,
2013-01-21 05:50:00,44.6,40.7,30.07,South,187,0.0,0.0,86,0.00,,CLR,0.00,VWS V14.01,2013-01-21 11:50:00,
2013-01-21 05:55:00,44.2,40.3,30.07,South,187,0.0,0.0,86,0.00,,CLR,0.00,VWS V14.01,2013-01-21 11:55:00,
2013-01-21 06:00:00,44.1,40.2,30.08,South,187,0.0,0.0,86,0.00,,CLR,0.00,VWS V14.01,2013-01-21 12:00:00,
2013-01-21 06:05:00,44.1,40.2,30.08,South,187,0.0,0.0,86,0.00,,CLR,0.00,VWS V14.01,2013-01-21 12:05:00,
2013-01-21 06:10:00,44.1,40.2,30.08,South,187,0.0,0.0,86,0.00,,,0.00,VWS V14.01,2013-01-21 12:10:00,
2013-01-21 06:15:00,44.1,40.5,30.08,South,187,0.0,0.0,87,0.00,,,0.00,VWS V14.01,2013-01-21 12:15:00,
2013-01-21 06:20:00,44.1,40.5,30.08,South,187,0.0,0.0,87,0.00,,,0.00,VWS V14.01,2013-01-21 12:20:00,
2013-01-21 06:26:00,44.1,40.5,30.08,South,187,0.0,0.0,87,0.00,,,0.00,VWS V14.01,2013-01-21 12:26:00,
2013-01-21 06:31:00,44.2,40.9,30.08,South,187,0.0,0.0,88,0.00,,,0.00,VWS V14.01,2013-01-21 12:31:00,
2013-01-21 06:36:00,44.1,40.8,30.08,South,187,0.0,0.0,88,0.00,,,0.00,VWS V14.01,2013-01-21 12:36:00,
2013-01-21 06:41:00,43.8,40.5,30.08,South,187,0.0,0.0,88,0.00,,,0.00,VWS V14.01,2013-01-21 12:41:00,
2013-01-21 06:46:00,43.5,40.2,30.09,South,187,0.0,0.0,88,0.00,,,0.00,VWS V14.01,2013-01-21 12:46:00,
2013-01-21 06:51:00,43.3,40.0,30.09,South,187,0.0,0.0,88,0.00,,,0.00,VWS V14.01,2013-01-21 12:51:00,
2013-01-21 06:56:00,43.3,40.0,30.09,South,187,0.0,0.0,88,0.00,,,0.00,VWS V14.01,2013-01-21 12:56:00,
2013-01-21 07:01:00,43.2,39.9,30.10,South,187,0.0,0.0,88,0.00,,,0.00,VWS V14.01,2013-01-21 13:01:00,
2013-01-21 07:07:00,43.2,39.9,30.10,South,187,0.0,0.0,88,0.00,,,0.00,VWS V14.01,2013-01-21 13:07:00,
2013-01-21 07:12:00,43.2,40.2,30.10,NNW,336,0.0,4.0,89,0.00,,,0.00,VWS V14.01,2013-01-21 13:12:00,
2013-01-21 07:17:00,43.3,40.3,30.11,NNW,336,0.0,4.0,89,0.00,,,0.00,VWS V14.01,2013-01-21 13:17:00,
2013-01-21 07:22:00,43.2,40.2,30.11,NNW,336,0.0,0.0,89,0.00,,,0.00,VWS V14.01,2013-01-21 13:22:00,
2013-01-21 07:27:00,43.1,40.1,30.11,NNW,336,0.0,0.0,89,0.00,,,0.00,VWS V14.01,2013-01-21 13:27:00,
2013-01-21 07:32:00,42.9,39.9,30.11,NNW,336,0.0,0.0,89,0.00,,,0.00,VWS V14.01,2013-01-21 13:32:00,
2013-01-21 07:37:00,42.6,39.6,30.11,NNW,336,0.0,0.0,89,0.00,,,0.00,VWS V14.01,2013-01-21 13:37:00,
2013-01-21 07:42:00,42.3,39.3,30.11,NNW,336,0.0,0.0,89,0.00,,,0.00,VWS V14.01,2013-01-21 13:42:00,
2013-01-21 07:48:00,42.1,39.1,30.12,NNW,333,0.0,1.0,89,0.00,,,0.00,VWS V14.01,2013-01-21 13:48:00,
2013-01-21 07:53:00,42.1,39.4,30.12,NNW,331,2.0,2.0,90,0.00,,,0.00,VWS V14.01,2013-01-21 13:53:00,
2013-01-21 07:58:00,42.5,39.8,30.12,NW,324,4.0,7.0,90,0.00,,,0.00,VWS V14.01,2013-01-21 13:58:00,
2013-01-21 08:03:00,42.9,40.5,30.14,NNW,338,7.0,10.0,91,0.00,,,0.00,VWS V14.01,2013-01-21 14:03:00,
2013-01-21 08:08:00,43.3,40.8,30.14,NNW,338,3.0,13.0,91,0.00,,,0.00,VWS V14.01,2013-01-21 14:08:00,
2013-01-21 08:13:00,43.3,40.8,30.14,NNW,348,4.0,6.0,91,0.00,,,0.00,VWS V14.01,2013-01-21 14:13:00,
2013-01-21 08:18:00,43.3,40.8,30.14,NNW,342,2.0,9.0,91,0.00,,,0.00,VWS V14.01,2013-01-21 14:18:00,
2013-01-21 08:23:00,43.6,41.2,30.14,NNW,332,7.0,9.0,91,0.00,,,0.00,VWS V14.01,2013-01-21 14:23:00,
2013-01-21 08:29:00,43.8,41.3,30.14,NNW,345,4.0,9.0,91,0.00,,,0.00,VWS V14.01,2013-01-21 14:29:00,
2013-01-21 08:34:00,43.9,41.5,30.14,NNW,346,5.0,12.0,91,0.00,,,0.00,VWS V14.01,2013-01-21 14:34:00,
2013-01-21 08:39:00,44.1,41.7,30.14,North,355,7.0,12.0,91,0.00,,,0.00,VWS V14.01,2013-01-21 14:39:00,
2013-01-21 08:44:00,44.1,41.4,30.14,North,5,6.0,14.0,90,0.00,,,0.00,VWS V14.01,2013-01-21 14:44:00,
2013-01-21 08:49:00,44.3,41.6,30.14,North,11,5.0,14.0,90,0.00,,,0.00,VWS V14.01,2013-01-21 14:49:00,
2013-01-21 08:54:00,44.8,42.0,30.14,North,349,5.0,13.0,90,0.00,,,0.00,VWS V14.01,2013-01-21 14:54:00,
2013-01-21 08:59:00,44.6,41.3,30.15,North,5,1.0,13.0,88,0.00,,,0.00,VWS V14.01,2013-01-21 14:59:00,
2013-01-21 09:04:00,44.8,41.5,30.15,NNW,348,6.0,16.0,88,0.00,,,0.00,VWS V14.01,2013-01-21 15:04:00,
2013-01-21 09:09:00,45.2,41.9,30.15,NW,317,9.0,16.0,88,0.00,,,0.00,VWS V14.01,2013-01-21 15:09:00,
2013-01-21 09:15:00,45.1,41.2,30.16,NNW,338,10.0,15.0,86,0.00,,CLR,0.00,VWS V14.01,2013-01-21 15:15:00,
2013-01-21 09:20:00,45.5,41.3,30.16,NNW,335,6.0,15.0,85,0.00,,CLR,0.00,VWS V14.01,2013-01-21 15:20:00,
2013-01-21 09:25:00,45.5,40.7,30.16,NW,322,6.0,14.0,83,0.00,,CLR,0.00,VWS V14.01,2013-01-21 15:25:00,
2013-01-21 09:30:00,45.8,40.9,30.16,NNW,338,8.0,14.0,83,0.00,,CLR,0.00,VWS V14.01,2013-01-21 15:30:00,
2013-01-21 09:35:00,46.1,40.6,30.16,NW,306,6.0,12.0,81,0.00,,CLR,0.00,VWS V14.01,2013-01-21 15:35:00,
2013-01-21 09:40:00,46.5,40.7,30.16,NNW,327,9.0,13.0,80,0.00,,CLR,0.00,VWS V14.01,2013-01-21 15:40:00,
2013-01-21 09:45:00,46.4,40.2,30.17,NNW,329,4.0,14.0,79,0.00,,CLR,0.00,VWS V14.01,2013-01-21 15:45:00,
2013-01-21 09:50:00,47.4,40.6,30.17,NNW,329,7.0,7.0,77,0.00,,CLR,0.00,VWS V14.01,2013-01-21 15:50:00,
2013-01-21 09:55:00,47.6,40.1,30.17,NW,310,7.0,13.0,75,0.00,,CLR,0.00,VWS V14.01,2013-01-21 15:55:00,
2013-01-21 10:00:00,47.9,40.0,30.17,NNW,329,3.0,6.0,74,0.00,,CLR,0.00,VWS V14.01,2013-01-21 16:00:00,
2013-01-21 10:05:00,48.0,40.1,30.17,NNW,331,7.0,12.0,74,0.00,,CLR,0.00,VWS V14.01,2013-01-21 16:05:00,
2013-01-21 10:10:00,48.0,39.4,30.17,NNW,331,10.0,11.0,72,0.00,,CLR,0.00,VWS V14.01,2013-01-21 16:10:00,
2013-01-21 10:16:00,48.6,39.6,30.18,North,350,6.0,13.0,71,0.00,,CLR,0.00,VWS V14.01,2013-01-21 16:16:00,
2013-01-21 10:21:00,48.6,38.9,30.18,NNE,21,4.0,12.0,69,0.00,,CLR,0.00,VWS V14.01,2013-01-21 16:21:00,
2013-01-21 10:26:00,48.9,39.2,30.18,WNW,300,11.0,15.0,69,0.00,,CLR,0.00,VWS V14.01,2013-01-21 16:26:00,
2013-01-21 10:31:00,49.6,39.1,30.18,NW,323,10.0,12.0,67,0.00,,CLR,0.00,VWS V14.01,2013-01-21 16:31:00,
2013-01-21 10:36:00,50.1,39.6,30.18,NW,311,11.0,12.0,67,0.00,,CLR,0.00,VWS V14.01,2013-01-21 16:36:00,
2013-01-21 10:41:00,49.9,38.6,30.18,NNW,339,6.0,11.0,65,0.00,,CLR,0.00,VWS V14.01,2013-01-21 16:41:00,
2013-01-21 10:46:00,50.7,39.4,30.19,North,360,2.0,11.0,65,0.00,,CLR,0.00,VWS V14.01,2013-01-21 16:46:00,
2013-01-21 10:51:00,51.6,39.0,30.19,NNW,331,7.0,11.0,62,0.00,,CLR,0.00,VWS V14.01,2013-01-21 16:51:00,
2013-01-21 10:56:00,50.8,38.3,30.19,NNW,338,12.0,14.0,62,0.00,,CLR,0.00,VWS V14.01,2013-01-21 16:56:00,
2013-01-21 11:01:00,50.8,39.1,30.19,NNW,327,11.0,13.0,64,0.00,,CLR,0.00,VWS V14.01,2013-01-21 17:01:00,
2013-01-21 11:07:00,51.4,38.4,30.19,NNW,340,11.0,14.0,61,0.00,,CLR,0.00,VWS V14.01,2013-01-21 17:07:00,
2013-01-21 11:12:00,51.4,38.4,30.19,North,355,12.0,14.0,61,0.00,,CLR,0.00,VWS V14.01,2013-01-21 17:12:00,
2013-01-21 11:17:00,51.6,38.6,30.19,North,355,9.0,15.0,61,0.00,,CLR,0.00,VWS V14.01,2013-01-21 17:17:00,
2013-01-21 11:22:00,52.0,39.0,30.19,NW,325,9.0,12.0,61,0.00,,CLR,0.00,VWS V14.01,2013-01-21 17:22:00,
2013-01-21 11:27:00,52.3,38.8,30.19,NNW,331,10.0,14.0,60,0.00,,CLR,0.00,VWS V14.01,2013-01-21 17:27:00,
2013-01-21 11:32:00,52.2,38.8,30.19,NW,319,9.0,14.0,60,0.00,,CLR,0.00,VWS V14.01,2013-01-21 17:32:00,
2013-01-21 11:37:00,52.8,38.9,30.19,NW,314,8.0,14.0,59,0.00,,CLR,0.00,VWS V14.01,2013-01-21 17:37:00,
2013-01-21 11:42:00,53.3,38.9,30.19,NNW,328,7.0,14.0,58,0.00,,CLR,0.00,VWS V14.01,2013-01-21 17:42:00,
2013-01-21 11:47:00,53.3,38.5,30.18,NNW,332,5.0,14.0,57,0.00,,CLR,0.00,VWS V14.01,2013-01-21 17:47:00,
2013-01-21 11:53:00,54.2,39.3,30.18,NNE,28,7.0,10.0,57,0.00,,CLR,0.00,VWS V14.01,2013-01-21 17:53:00,
2013-01-21 11:58:00,53.8,38.5,30.18,NNW,342,5.0,11.0,56,0.00,,CLR,0.00,VWS V14.01,2013-01-21 17:58:00,
2013-01-21 12:03:00,54.4,39.0,30.18,North,355,7.0,13.0,56,0.00,,CLR,0.00,VWS V14.01,2013-01-21 18:03:00,
2013-01-21 12:08:00,54.5,39.6,30.18,NNW,328,11.0,13.0,57,0.00,,CLR,0.00,VWS V14.01,2013-01-21 18:08:00,
2013-01-21 12:13:00,54.7,39.3,30.18,NNW,327,6.0,13.0,56,0.00,,CLR,0.00,VWS V14.01,2013-01-21 18:13:00,
2013-01-21 12:18:00,55.1,39.7,30.17,North,360,7.0,14.0,56,0.00,,CLR,0.00,VWS V14.01,2013-01-21 18:18:00,
2013-01-21 12:23:00,55.0,39.6,30.17,North,360,0.0,12.0,56,0.00,,CLR,0.00,VWS V14.01,2013-01-21 18:23:00,
2013-01-21 12:28:00,56.5,40.5,30.17,NW,311,7.0,12.0,55,0.00,,CLR,0.00,VWS V14.01,2013-01-21 18:28:00,
2013-01-21 12:33:00,57.0,40.1,30.17,North,5,1.0,9.0,53,0.00,,CLR,0.00,VWS V14.01,2013-01-21 18:33:00,
2013-01-21 12:39:00,57.2,40.2,30.17,NW,313,9.0,13.0,53,0.00,,CLR,0.00,VWS V14.01,2013-01-21 18:39:00,
2013-01-21 12:44:00,56.9,40.4,30.17,North,355,1.0,10.0,54,0.00,,CLR,0.00,VWS V14.01,2013-01-21 18:44:00,
2013-01-21 12:49:00,57.5,41.0,30.16,NNW,337,11.0,11.0,54,0.00,,CLR,0.00,VWS V14.01,2013-01-21 18:49:00,
2013-01-21 12:54:00,57.5,40.5,30.16,North,349,11.0,13.0,53,0.00,,CLR,0.00,VWS V14.01,2013-01-21 18:54:00,
2013-01-21 12:59:00,57.5,40.5,30.15,WNW,302,5.0,13.0,53,0.00,,CLR,0.00,VWS V14.01,2013-01-21 18:59:00,
2013-01-21 13:04:00,58.0,40.0,30.15,North,355,3.0,13.0,51,0.00,,CLR,0.00,VWS V14.01,2013-01-21 19:04:00,
2013-01-21 13:09:00,58.0,40.0,30.15,North,5,6.0,13.0,51,0.00,,CLR,0.00,VWS V14.01,2013-01-21 19:09:00,
2013-01-21 13:14:00,57.6,40.1,30.15,NNW,343,7.0,12.0,52,0.00,,CLR,0.00,VWS V14.01,2013-01-21 19:14:00,
2013-01-21 13:20:00,58.3,40.8,30.15,North,350,0.0,12.0,52,0.00,,CLR,0.00,VWS V14.01,2013-01-21 19:20:00,
2013-01-21 13:25:00,58.0,40.0,30.15,North,360,10.0,11.0,51,0.00,,CLR,0.00,VWS V14.01,2013-01-21 19:25:00,
2013-01-21 13:30:00,58.3,40.8,30.14,NW,306,8.0,11.0,52,0.00,,CLR,0.00,VWS V14.01,2013-01-21 19:30:00,
2013-01-21 13:35:00,58.3,40.3,30.14,NNE,24,6.0,13.0,51,0.00,,CLR,0.00,VWS V14.01,2013-01-21 19:35:00,
2013-01-21 13:40:00,58.1,40.6,30.14,North,360,6.0,13.0,52,0.00,,CLR,0.00,VWS V14.01,2013-01-21 19:40:00,
2013-01-21 13:45:00,58.7,40.6,30.14,NE,34,1.0,10.0,51,0.00,,CLR,0.00,VWS V14.01,2013-01-21 19:45:00,
2013-01-21 13:50:00,58.7,40.1,30.14,North,360,7.0,8.0,50,0.00,,CLR,0.00,VWS V14.01,2013-01-21 19:50:00,
2013-01-21 13:55:00,58.4,39.8,30.14,NW,325,5.0,11.0,50,0.00,,CLR,0.00,VWS V14.01,2013-01-21 19:55:00,
2013-01-21 14:00:00,58.6,40.5,30.14,NE,37,1.0,2.0,51,0.00,,CLR,0.00,VWS V14.01,2013-01-21 20:00:00,
2013-01-21 14:05:00,58.4,39.8,30.14,NE,36,0.0,7.0,50,0.00,,CLR,0.00,VWS V14.01,2013-01-21 20:05:00,
2013-01-21 14:10:00,59.5,40.9,30.14,NNE,13,0.0,1.0,50,0.00,,CLR,0.00,VWS V14.01,2013-01-21 20:10:00,
2013-01-21 14:16:00,59.3,40.2,30.14,NNW,344,9.0,10.0,49,0.00,,CLR,0.00,VWS V14.01,2013-01-21 20:16:00,
2013-01-21 14:21:00,59.6,41.0,30.14,NE,50,1.0,3.0,50,0.00,,CLR,0.00,VWS V14.01,2013-01-21 20:21:00,
2013-01-21 14:26:00,59.5,40.9,30.14,NNW,348,0.0,10.0,50,0.00,,CLR,0.00,VWS V14.01,2013-01-21 20:26:00,
2013-01-21 14:31:00,59.5,40.9,30.14,NNE,32,5.0,11.0,50,0.00,,CLR,0.00,VWS V14.01,2013-01-21 20:31:00,
2013-01-21 14:36:00,59.5,40.3,30.14,NNW,338,8.0,11.0,49,0.00,,CLR,0.00,VWS V14.01,2013-01-21 20:36:00,
2013-01-21 14:41:00,59.3,40.7,30.14,North,355,8.0,10.0,50,0.00,,CLR,0.00,VWS V14.01,2013-01-21 20:41:00,
2013-01-21 14:46:00,60.1,40.9,30.14,NNW,331,1.0,13.0,49,0.00,,CLR,0.00,VWS V14.01,2013-01-21 20:46:00,
2013-01-21 14:51:00,60.9,41.1,30.14,NNW,337,1.0,2.0,48,0.00,,CLR,0.00,VWS V14.01,2013-01-21 20:51:00,
2013-01-21 14:56:00,59.5,40.3,30.14,NNE,15,2.0,5.0,49,0.00,,CLR,0.00,VWS V14.01,2013-01-21 20:56:00,
2013-01-21 15:01:00,59.3,40.2,30.14,NNW,340,1.0,2.0,49,0.00,,CLR,0.00,VWS V14.01,2013-01-21 21:01:00,
2013-01-21 15:07:00,60.2,41.0,30.14,North,351,1.0,3.0,49,0.00,,CLR,0.00,VWS V14.01,2013-01-21 21:07:00,
2013-01-21 15:12:00,60.1,40.9,30.14,NNE,23,5.0,10.0,49,0.00,,CLR,0.00,VWS V14.01,2013-01-21 21:12:00,
2013-01-21 15:17:00,59.9,41.2,30.14,NW,322,1.0,11.0,50,0.00,,CLR,0.00,VWS V14.01,2013-01-21 21:17:00,
2013-01-21 15:22:00,59.9,41.2,30.14,NNW,346,0.0,4.0,50,0.00,,CLR,0.00,VWS V14.01,2013-01-21 21:22:00,
2013-01-21 15:27:00,60.2,41.5,30.14,North,355,0.0,4.0,50,0.00,,CLR,0.00,VWS V14.01,2013-01-21 21:27:00,
2013-01-21 15:32:00,60.4,41.2,30.14,North,349,1.0,1.0,49,0.00,,CLR,0.00,VWS V14.01,2013-01-21 21:32:00,
2013-01-21 15:37:00,60.4,41.7,30.14,North,5,0.0,11.0,50,0.00,,CLR,0.00,VWS V14.01,2013-01-21 21:37:00,
2013-01-21 15:42:00,60.1,41.9,30.14,NE,43,1.0,2.0,51,0.00,,CLR,0.00,VWS V14.01,2013-01-21 21:42:00,
2013-01-21 15:48:00,60.2,41.5,30.14,NNE,12,8.0,10.0,50,0.00,,CLR,0.00,VWS V14.01,2013-01-21 21:48:00,
2013-01-21 15:53:00,59.9,41.8,30.14,North,5,2.0,7.0,51,0.00,,CLR,0.00,VWS V14.01,2013-01-21 21:53:00,
2013-01-21 15:58:00,60.1,41.4,30.14,NNE,17,1.0,9.0,50,0.00,,CLR,0.00,VWS V14.01,2013-01-21 21:58:00,
2013-01-21 16:03:00,59.8,41.7,30.14,NNW,347,7.0,8.0,51,0.00,,CLR,0.00,VWS V14.01,2013-01-21 22:03:00,
2013-01-21 16:08:00,59.6,41.5,30.14,NNE,17,2.0,8.0,51,0.00,,CLR,0.00,VWS V14.01,2013-01-21 22:08:00,
2013-01-21 16:13:00,59.8,41.7,30.14,NNW,346,0.0,6.0,51,0.00,,CLR,0.00,VWS V14.01,2013-01-21 22:13:00,
2013-01-21 16:19:00,59.9,41.8,30.14,NNE,13,0.0,7.0,51,0.00,,CLR,0.00,VWS V14.01,2013-01-21 22:19:00,
2013-01-21 16:24:00,59.6,42.0,30.14,NNW,332,2.0,8.0,52,0.00,,CLR,0.00,VWS V14.01,2013-01-21 22:24:00,
2013-01-21 16:29:00,59.5,41.9,30.14,NNW,348,0.0,8.0,52,0.00,,CLR,0.00,VWS V14.01,2013-01-21 22:29:00,
2013-01-21 16:34:00,59.3,41.7,30.14,North,11,1.0,7.0,52,0.00,,CLR,0.00,VWS V14.01,2013-01-21 22:34:00,
2013-01-21 16:39:00,59.3,41.7,30.14,North,11,0.0,7.0,52,0.00,,CLR,0.00,VWS V14.01,2013-01-21 22:39:00,
2013-01-21 16:44:00,59.3,41.7,30.14,North,9,0.0,2.0,52,0.00,,CLR,0.00,VWS V14.01,2013-01-21 22:44:00,
2013-01-21 16:49:00,59.0,41.9,30.14,North,350,1.0,6.0,53,0.00,,CLR,0.00,VWS V14.01,2013-01-21 22:49:00,
2013-01-21 16:54:00,58.9,41.8,30.14,NNW,337,0.0,5.0,53,0.00,,CLR,0.00,VWS V14.01,2013-01-21 22:54:00,
2013-01-21 17:00:00,58.7,41.6,30.14,NNW,338,0.0,5.0,53,0.00,,CLR,0.00,VWS V14.01,2013-01-21 23:00:00,
2013-01-21 17:05:00,58.6,41.5,30.14,NNW,338,1.0,1.0,53,0.00,,CLR,0.00,VWS V14.01,2013-01-21 23:05:00,
2013-01-21 17:10:00,58.1,41.6,30.14,North,5,1.0,8.0,54,0.00,,CLR,0.00,VWS V14.01,2013-01-21 23:10:00,
2013-01-21 17:15:00,57.6,41.6,30.14,North,350,0.0,2.0,55,0.00,,CLR,0.00,VWS V14.01,2013-01-21 23:15:00,
2013-01-21 17:20:00,57.3,41.3,30.14,North,350,0.0,2.0,55,0.00,,CLR,0.00,VWS V14.01,2013-01-21 23:20:00,
2013-01-21 17:25:00,57.0,41.5,30.14,NNW,348,0.0,6.0,56,0.00,,CLR,0.00,VWS V14.01,2013-01-21 23:25:00,
2013-01-21 17:30:00,56.6,41.6,30.13,NNW,348,0.0,6.0,57,0.00,,CLR,0.00,VWS V14.01,2013-01-21 23:30:00,
2013-01-21 17:35:00,56.3,41.3,30.13,NNW,348,0.0,0.0,57,0.00,,CLR,0.00,VWS V14.01,2013-01-21 23:35:00,
2013-01-21 17:40:00,56.3,41.3,30.13,NNW,348,0.0,0.0,57,0.00,,CLR,0.00,VWS V14.01,2013-01-21 23:40:00,
2013-01-21 17:45:00,56.3,41.3,30.13,NNW,348,0.0,0.0,57,0.00,,CLR,0.00,VWS V14.01,2013-01-21 23:45:00,
2013-01-21 17:50:00,56.0,41.5,30.13,NNW,348,0.0,0.0,58,0.00,,CLR,0.00,VWS V14.01,2013-01-21 23:50:00,
2013-01-21 17:55:00,55.7,41.2,30.13,NNW,348,0.0,0.0,58,0.00,,CLR,0.00,VWS V14.01,2013-01-21 23:55:00,
2013-01-21 18:01:00,55.3,41.2,30.13,NNW,348,0.0,0.0,59,0.00,,CLR,0.00,VWS V14.01,2013-01-22 00:01:00,
2013-01-21 18:06:00,54.8,41.2,30.13,NNW,348,0.0,0.0,60,0.00,,CLR,0.00,VWS V14.01,2013-01-22 00:06:00,
2013-01-21 18:11:00,54.4,41.2,30.13,NNW,348,0.0,0.0,61,0.00,,CLR,0.00,VWS V14.01,2013-01-22 00:11:00,
2013-01-21 18:16:00,53.9,41.2,30.14,NNW,348,0.0,0.0,62,0.00,,CLR,0.00,VWS V14.01,2013-01-22 00:16:00,
2013-01-21 18:21:00,53.5,40.8,30.14,NNW,348,0.0,0.0,62,0.00,,CLR,0.00,VWS V14.01,2013-01-22 00:21:00,
2013-01-21 18:26:00,53.2,41.0,30.14,NNW,348,0.0,0.0,63,0.00,,CLR,0.00,VWS V14.01,2013-01-22 00:26:00,
2013-01-21 18:31:00,52.8,41.0,30.14,NNW,348,0.0,0.0,64,0.00,,CLR,0.00,VWS V14.01,2013-01-22 00:31:00,
2013-01-21 18:36:00,52.5,40.7,30.14,NNW,348,0.0,0.0,64,0.00,,CLR,0.00,VWS V14.01,2013-01-22 00:36:00,
2013-01-21 18:41:00,52.0,40.6,30.14,NNW,348,0.0,0.0,65,0.00,,CLR,0.00,VWS V14.01,2013-01-22 00:41:00,
2013-01-21 18:47:00,51.7,40.3,30.13,NNW,348,0.0,0.0,65,0.00,,CLR,0.00,VWS V14.01,2013-01-22 00:47:00,
2013-01-21 18:52:00,51.4,40.4,30.13,NNW,348,0.0,0.0,66,0.00,,CLR,0.00,VWS V14.01,2013-01-22 00:52:00,
2013-01-21 18:57:00,51.1,40.2,30.13,NNW,348,0.0,0.0,66,0.00,,CLR,0.00,VWS V14.01,2013-01-22 00:57:00,
2013-01-21 19:02:00,50.7,40.2,30.14,NNW,348,0.0,0.0,67,0.00,,CLR,0.00,VWS V14.01,2013-01-22 01:02:00,
2013-01-21 19:07:00,50.4,39.9,30.14,NNW,348,0.0,0.0,67,0.00,,CLR,0.00,VWS V14.01,2013-01-22 01:07:00,
2013-01-21 19:12:00,50.1,40.0,30.14,NNW,348,0.0,0.0,68,0.00,,CLR,0.00,VWS V14.01,2013-01-22 01:12:00,
2013-01-21 19:17:00,49.9,39.8,30.14,NNW,348,0.0,0.0,68,0.00,,CLR,0.00,VWS V14.01,2013-01-22 01:17:00,
2013-01-21 19:22:00,49.8,39.7,30.14,NNW,348,0.0,0.0,68,0.00,,CLR,0.00,VWS V14.01,2013-01-22 01:22:00,
2013-01-21 19:27:00,49.6,39.9,30.14,NNW,348,0.0,0.0,69,0.00,,CLR,0.00,VWS V14.01,2013-01-22 01:27:00,
2013-01-21 19:33:00,49.6,39.9,30.14,NNW,348,0.0,0.0,69,0.00,,CLR,0.00,VWS V14.01,2013-01-22 01:33:00,
2013-01-21 19:38:00,49.5,40.1,30.14,NNW,348,0.0,0.0,70,0.00,,CLR,0.00,VWS V14.01,2013-01-22 01:38:00,
2013-01-21 19:43:00,49.5,40.1,30.14,NNW,333,0.0,0.0,70,0.00,,CLR,0.00,VWS V14.01,2013-01-22 01:43:00,
2013-01-21 19:48:00,49.6,40.2,30.14,NNW,336,0.0,0.0,70,0.00,,CLR,0.00,VWS V14.01,2013-01-22 01:48:00,
2013-01-21 19:53:00,49.8,40.4,30.14,NNW,340,0.0,0.0,70,0.00,,CLR,0.00,VWS V14.01,2013-01-22 01:53:00,
2013-01-21 19:58:00,49.9,40.2,30.14,NNW,340,0.0,0.0,69,0.00,,CLR,0.00,VWS V14.01,2013-01-22 01:58:00,
2013-01-21 20:03:00,50.1,40.3,30.15,NNW,338,0.0,0.0,69,0.00,,CLR,0.00,VWS V14.01,2013-01-22 02:03:00,
2013-01-21 20:08:00,50.1,40.0,30.15,NNW,338,0.0,0.0,68,0.00,,CLR,0.00,VWS V14.01,2013-01-22 02:08:00,
2013-01-21 20:13:00,49.8,39.7,30.15,NNW,338,0.0,0.0,68,0.00,,CLR,0.00,VWS V14.01,2013-01-22 02:13:00,
2013-01-21 20:18:00,49.5,39.8,30.15,NNW,338,0.0,0.0,69,0.00,,CLR,0.00,VWS V14.01,2013-01-22 02:18:00,
2013-01-21 20:23:00,49.2,39.5,30.15,NNW,338,0.0,0.0,69,0.00,,CLR,0.00,VWS V14.01,2013-01-22 02:23:00,
2013-01-21 20:29:00,49.1,39.4,30.15,NNW,338,0.0,0.0,69,0.00,,CLR,0.00,VWS V14.01,2013-01-22 02:29:00,
2013-01-21 20:34:00,48.8,39.5,30.15,NNW,338,0.0,0.0,70,0.00,,CLR,0.00,VWS V14.01,2013-01-22 02:34:00,
2013-01-21 20:39:00,48.6,39.3,30.15,NNW,338,0.0,0.0,70,0.00,,CLR,0.00,VWS V14.01,2013-01-22 02:39:00,
2013-01-21 20:44:00,48.3,39.3,30.15,NNW,338,0.0,0.0,71,0.00,,CLR,0.00,VWS V14.01,2013-01-22 02:44:00,
2013-01-21 20:49:00,48.2,39.2,30.15,NNW,338,0.0,0.0,71,0.00,,CLR,0.00,VWS V14.01,2013-01-22 02:49:00,
2013-01-21 20:54:00,48.0,39.1,30.15,NNW,338,0.0,0.0,71,0.00,,CLR,0.00,VWS V14.01,2013-01-22 02:54:00,
2013-01-21 20:59:00,47.9,39.0,30.16,NNW,338,0.0,0.0,71,0.00,,CLR,0.00,VWS V14.01,2013-01-22 02:59:00,
2013-01-21 21:04:00,48.0,39.4,30.16,NNW,344,0.0,0.0,72,0.00,,CLR,0.00,VWS V14.01,2013-01-22 03:04:00,
2013-01-21 21:09:00,48.0,39.4,30.16,NNW,344,0.0,0.0,72,0.00,,CLR,0.00,VWS V14.01,2013-01-22 03:09:00,
2013-01-21 21:14:00,48.2,39.6,30.16,NNW,344,0.0,0.0,72,0.00,,CLR,0.00,VWS V14.01,2013-01-22 03:14:00,
2013-01-21 21:19:00,48.0,39.4,30.16,NNW,344,0.0,0.0,72,0.00,,CLR,0.00,VWS V14.01,2013-01-22 03:19:00,
2013-01-21 21:25:00,47.9,39.0,30.16,NNW,344,0.0,0.0,71,0.00,,CLR,0.00,VWS V14.01,2013-01-22 03:25:00,
2013-01-21 21:30:00,47.7,39.1,30.16,NNW,344,0.0,0.0,72,0.00,,CLR,0.00,VWS V14.01,2013-01-22 03:30:00,
2013-01-21 21:35:00,47.6,39.0,30.16,NNW,344,0.0,0.0,72,0.00,,CLR,0.00,VWS V14.01,2013-01-22 03:35:00,
2013-01-21 21:40:00,47.1,38.5,30.16,NNW,344,0.0,0.0,72,0.00,,CLR,0.00,VWS V14.01,2013-01-22 03:40:00,
2013-01-21 21:45:00,46.7,38.2,30.16,NNW,344,0.0,0.0,72,0.00,,CLR,0.00,VWS V14.01,2013-01-22 03:45:00,
2013-01-21 21:50:00,46.4,38.2,30.16,NNW,344,0.0,0.0,73,0.00,,CLR,0.00,VWS V14.01,2013-01-22 03:50:00,
2013-01-21 21:55:00,46.1,38.3,30.16,NNW,344,0.0,0.0,74,0.00,,CLR,0.00,VWS V14.01,2013-01-22 03:55:00,
2013-01-21 22:00:00,45.8,38.0,30.16,NNW,342,0.0,0.0,74,0.00,,CLR,0.00,VWS V14.01,2013-01-22 04:00:00,
2013-01-21 22:05:00,45.5,37.7,30.16,NNW,342,0.0,0.0,74,0.00,,CLR,0.00,VWS V14.01,2013-01-22 04:05:00,
2013-01-21 22:10:00,45.4,38.0,30.16,NNW,342,0.0,0.0,75,0.00,,CLR,0.00,VWS V14.01,2013-01-22 04:10:00,
2013-01-21 22:19:00,45.4,38.3,30.16,NNW,344,0.0,0.0,76,0.00,,CLR,0.00,VWS V14.01,2013-01-22 04:19:00,
2013-01-21 22:24:00,45.5,38.4,30.16,NNW,348,0.0,0.0,76,0.00,,CLR,0.00,VWS V14.01,2013-01-22 04:24:00,
2013-01-21 22:29:00,45.8,38.7,30.16,NNW,348,0.0,0.0,76,0.00,,CLR,0.00,VWS V14.01,2013-01-22 04:29:00,
2013-01-21 22:34:00,45.8,38.7,30.16,NNW,343,0.0,0.0,76,0.00,,CLR,0.00,VWS V14.01,2013-01-22 04:34:00,
2013-01-21 22:40:00,46.0,38.9,30.16,NNW,343,0.0,0.0,76,0.00,,CLR,0.00,VWS V14.01,2013-01-22 04:40:00,
2013-01-21 22:45:00,46.0,38.9,30.16,NNW,343,0.0,0.0,76,0.00,,CLR,0.00,VWS V14.01,2013-01-22 04:45:00,
2013-01-21 22:50:00,46.0,38.9,30.16,NNW,343,0.0,0.0,76,0.00,,CLR,0.00,VWS V14.01,2013-01-22 04:50:00,
2013-01-21 22:55:00,46.0,38.9,30.16,NNW,345,0.0,0.0,76,0.00,,CLR,0.00,VWS V14.01,2013-01-22 04:55:00,
2013-01-21 23:00:00,45.8,38.7,30.16,NNW,345,0.0,0.0,76,0.00,,CLR,0.00,VWS V14.01,2013-01-22 05:00:00,
2013-01-21 23:01:00,45.8,38.7,30.16,NNW,345,0.0,0.0,76,0.00,,CLR,0.00,VWS V14.01,2013-01-22 05:01:00,
2013-01-21 23:02:00,45.8,38.7,30.16,NNW,345,0.0,0.0,76,0.00,,CLR,0.00,VWS V14.01,2013-01-22 05:02:00,
2013-01-21 23:08:00,45.7,38.6,30.16,NNW,345,0.0,0.0,76,0.00,,CLR,0.00,VWS V14.01,2013-01-22 05:08:00,
2013-01-21 23:13:00,45.5,38.7,30.16,NNW,345,0.0,0.0,77,0.00,,CLR,0.00,VWS V14.01,2013-01-22 05:13:00,
2013-01-21 23:18:00,45.5,38.7,30.16,NNW,345,0.0,0.0,77,0.00,,CLR,0.00,VWS V14.01,2013-01-22 05:18:00,
2013-01-21 23:23:00,45.4,38.6,30.16,NNW,344,0.0,0.0,77,0.00,,CLR,0.00,VWS V14.01,2013-01-22 05:23:00,
2013-01-21 23:28:00,45.2,38.4,30.16,NNW,344,0.0,0.0,77,0.00,,CLR,0.00,VWS V14.01,2013-01-22 05:28:00,
2013-01-21 23:33:00,45.1,38.3,30.17,NNW,344,0.0,0.0,77,0.00,,CLR,0.00,VWS V14.01,2013-01-22 05:33:00,
2013-01-21 23:38:00,44.9,38.1,30.17,NNW,344,0.0,0.0,77,0.00,,CLR,0.00,VWS V14.01,2013-01-22 05:38:00,
2013-01-21 23:44:00,44.9,38.5,30.17,NNW,344,0.0,0.0,78,0.00,,CLR,0.00,VWS V14.01,2013-01-22 05:44:00,
2013-01-21 23:49:00,44.8,38.4,30.17,NNW,344,0.0,0.0,78,0.00,,CLR,0.00,VWS V14.01,2013-01-22 05:49:00,
2013-01-21 23:54:00,44.6,38.2,30.17,NNW,344,0.0,0.0,78,0.00,,CLR,0.00,VWS V14.01,2013-01-22 05:54:00,
2013-01-21 23:59:00,44.6,38.5,30.17,NNW,344,0.0,0.0,79,0.00,,CLR,0.00,VWS V14.01,2013-01-22 05:59:00,